createdAt,value
2023-04-15T00:01:22.629Z,98.30
2023-04-15T00:03:53.878Z,98.00
2023-04-15T00:06:26.513Z,98.10
2023-04-15T00:08:56.438Z,98.60
2023-04-15T00:11:38.211Z,98.60
2023-04-15T00:14:06.655Z,98.80
2023-04-15T00:16:34.550Z,98.90
2023-04-15T00:19:01.836Z,98.80
2023-04-15T00:21:33.162Z,99.10
2023-04-15T00:24:00.744Z,99.00
2023-04-15T00:26:27.861Z,99.00
2023-04-15T00:28:55.466Z,99.10
2023-04-15T00:31:30.324Z,99.20
2023-04-15T00:33:58.176Z,99.40
2023-04-15T00:36:26.246Z,99.80
2023-04-15T00:38:58.445Z,99.80
2023-04-15T00:41:25.747Z,99.90
2023-04-15T00:43:53.708Z,99.90
2023-04-15T00:46:22.139Z,99.90
2023-04-15T00:48:55.490Z,99.90
2023-04-15T00:51:22.986Z,99.90
2023-04-15T00:53:58.580Z,99.90
2023-04-15T00:56:29.988Z,99.90
2023-04-15T00:58:58.375Z,99.90
2023-04-15T01:01:27.442Z,99.90
2023-04-15T01:03:56.717Z,99.90
2023-04-15T01:06:24.575Z,99.90
2023-04-15T01:08:51.813Z,99.90
2023-04-15T01:11:21.483Z,99.90
2023-04-15T01:13:48.991Z,99.90
2023-04-15T01:16:17.980Z,99.90
2023-04-15T01:18:46.133Z,99.90
2023-04-15T01:21:13.958Z,99.90
2023-04-15T01:23:41.543Z,99.90
2023-04-15T01:26:10.721Z,99.90
2023-04-15T01:28:38.833Z,99.90
2023-04-15T01:31:15.375Z,99.90
2023-04-15T01:33:48.380Z,99.90
2023-04-15T01:36:16.110Z,99.90
2023-04-15T01:38:47.653Z,99.90
2023-04-15T01:41:16.821Z,99.90
2023-04-15T01:43:43.824Z,99.90
2023-04-15T01:46:14.628Z,99.90
2023-04-15T01:48:42.037Z,99.90
2023-04-15T01:51:09.556Z,99.90
2023-04-15T01:53:37.014Z,99.90
2023-04-15T01:56:04.737Z,99.90
2023-04-15T01:58:34.204Z,99.90
2023-04-15T02:01:05.244Z,99.90
2023-04-15T02:03:32.863Z,99.90
2023-04-15T02:06:00.501Z,99.90
2023-04-15T02:08:28.747Z,99.90
2023-04-15T02:10:56.511Z,99.90
2023-04-15T02:13:26.911Z,99.90
2023-04-15T02:15:55.614Z,99.90
2023-04-15T02:18:23.277Z,99.90
2023-04-15T02:20:52.978Z,99.90
2023-04-15T02:23:20.540Z,99.90
2023-04-15T02:25:53.242Z,99.90
2023-04-15T02:28:24.881Z,99.90
2023-04-15T02:30:53.384Z,99.90
2023-04-15T02:33:22.144Z,99.90
2023-04-15T02:35:49.734Z,99.90
2023-04-15T02:38:18.023Z,99.90
2023-04-15T02:40:45.682Z,99.90
2023-04-15T02:43:13.218Z,99.90
2023-04-15T02:45:41.685Z,99.90
2023-04-15T02:48:08.930Z,99.90
2023-04-15T02:50:46.509Z,99.90
2023-04-15T02:53:19.957Z,99.90
2023-04-15T02:55:47.586Z,99.90
2023-04-15T02:58:14.757Z,99.90
2023-04-15T03:00:52.408Z,99.90
2023-04-15T03:03:20.043Z,99.90
2023-04-15T03:05:56.191Z,99.90
2023-04-15T03:08:26.998Z,99.90
2023-04-15T03:10:54.679Z,99.90
2023-04-15T03:13:22.227Z,99.90
2023-04-15T03:15:49.911Z,99.90
2023-04-15T03:18:16.942Z,99.90
2023-04-15T03:20:44.622Z,99.90
2023-04-15T03:23:12.959Z,99.90
2023-04-15T03:25:40.435Z,99.90
2023-04-15T03:28:15.790Z,99.90
2023-04-15T03:30:46.112Z,99.90
2023-04-15T03:33:16.114Z,99.90
2023-04-15T03:35:43.979Z,99.90
2023-04-15T03:38:16.160Z,99.90
2023-04-15T03:40:44.312Z,99.90
2023-04-15T03:43:12.694Z,99.90
2023-04-15T03:45:40.243Z,99.90
2023-04-15T03:48:16.608Z,99.90
2023-04-15T03:50:45.336Z,99.90
2023-04-15T03:53:12.980Z,99.90
2023-04-15T03:55:41.817Z,99.90
2023-04-15T03:58:13.419Z,99.90
2023-04-15T04:00:48.235Z,99.90
2023-04-15T04:03:15.293Z,99.90
2023-04-15T04:05:44.828Z,99.90
2023-04-15T04:08:14.209Z,99.90
2023-04-15T04:10:43.267Z,99.90
2023-04-15T04:13:10.780Z,99.90
2023-04-15T04:15:44.664Z,99.90
2023-04-15T04:18:11.826Z,99.90
2023-04-15T04:20:39.406Z,99.90
2023-04-15T04:23:07.011Z,99.90
2023-04-15T04:25:34.559Z,99.90
2023-04-15T04:28:03.170Z,99.90
2023-04-15T04:30:30.925Z,99.90
2023-04-15T04:32:58.515Z,99.90
2023-04-15T04:35:26.171Z,99.90
2023-04-15T04:37:59.755Z,99.90
2023-04-15T04:40:27.422Z,99.90
2023-04-15T04:42:58.295Z,99.90
2023-04-15T04:45:27.669Z,99.90
2023-04-15T04:48:00.567Z,99.90
2023-04-15T04:50:34.028Z,99.90
2023-04-15T04:53:02.028Z,99.90
2023-04-15T04:55:29.716Z,99.90
2023-04-15T04:57:57.365Z,99.90
2023-04-15T05:00:26.458Z,99.90
2023-04-15T05:02:54.128Z,99.90
2023-04-15T05:05:21.902Z,99.90
2023-04-15T05:07:51.317Z,99.90
2023-04-15T05:10:19.154Z,99.90
2023-04-15T05:12:46.330Z,99.90
2023-04-15T05:15:14.071Z,99.90
2023-04-15T05:17:45.279Z,99.90
2023-04-15T05:20:13.719Z,99.90
2023-04-15T05:22:41.406Z,99.90
2023-04-15T05:25:12.842Z,99.90
2023-04-15T05:27:39.900Z,99.90
2023-04-15T05:30:10.243Z,99.90
2023-04-15T05:32:38.229Z,99.90
2023-04-15T05:35:09.102Z,99.90
2023-04-15T05:37:42.977Z,99.90
2023-04-15T05:40:17.966Z,99.90
2023-04-15T05:42:45.541Z,99.90
2023-04-15T05:45:12.574Z,99.90
2023-04-15T05:47:40.195Z,99.90
2023-04-15T05:50:10.565Z,99.90
2023-04-15T05:52:39.109Z,99.90
2023-04-15T05:55:10.499Z,99.90
2023-04-15T05:57:39.740Z,99.90
2023-04-15T06:00:09.036Z,99.90
2023-04-15T06:02:36.508Z,99.90
2023-04-15T06:05:10.166Z,99.90
2023-04-15T06:07:39.108Z,99.90
2023-04-15T06:10:08.946Z,99.90
2023-04-15T06:12:40.420Z,99.90
2023-04-15T06:15:11.435Z,99.90
2023-04-15T06:17:42.374Z,99.90
2023-04-15T06:20:11.463Z,99.90
2023-04-15T06:22:40.599Z,99.90
2023-04-15T06:25:09.836Z,99.90
2023-04-15T06:27:43.022Z,99.90
2023-04-15T06:30:11.750Z,99.90
2023-04-15T06:32:39.005Z,99.90
2023-04-15T06:35:06.770Z,99.90
2023-04-15T06:37:33.812Z,99.90
2023-04-15T06:40:02.973Z,99.90
2023-04-15T06:42:30.618Z,99.90
2023-04-15T06:45:11.065Z,99.90
2023-04-15T06:47:42.309Z,99.90
2023-04-15T06:50:11.701Z,99.90
2023-04-15T06:52:42.162Z,99.90
2023-04-15T06:55:11.122Z,99.90
2023-04-15T06:57:39.009Z,99.90
2023-04-15T07:00:11.157Z,99.90
2023-04-15T07:02:39.046Z,99.90
2023-04-15T07:05:08.488Z,99.90
2023-04-15T07:07:36.135Z,99.90
2023-04-15T07:10:03.888Z,99.90
2023-04-15T07:12:32.395Z,99.90
2023-04-15T07:15:00.192Z,99.90
2023-04-15T07:17:27.247Z,99.90
2023-04-15T07:19:57.577Z,99.90
2023-04-15T07:22:25.115Z,99.60
2023-04-15T07:24:59.087Z,93.80
2023-04-15T07:27:26.593Z,87.60
2023-04-15T07:29:55.424Z,84.20
2023-04-15T07:32:25.988Z,89.40
2023-04-15T07:34:57.223Z,87.00
2023-04-15T07:37:24.462Z,86.20
2023-04-15T07:39:53.503Z,85.80
2023-04-15T07:42:21.119Z,82.20
2023-04-15T07:44:48.234Z,78.50
2023-04-15T07:47:17.280Z,75.60
2023-04-15T07:49:52.122Z,72.70
2023-04-15T07:52:19.948Z,73.40
2023-04-15T07:54:50.472Z,71.80
2023-04-15T07:57:23.175Z,69.70
2023-04-15T07:59:50.204Z,69.20
2023-04-15T08:02:19.319Z,73.70
2023-04-15T08:04:47.021Z,77.90
2023-04-15T08:07:18.766Z,81.20
2023-04-15T08:09:46.527Z,82.90
2023-04-15T08:12:14.050Z,81.40
2023-04-15T08:14:42.004Z,77.50
2023-04-15T08:17:12.595Z,75.50
2023-04-15T08:19:42.336Z,76.80
2023-04-15T08:22:17.858Z,76.40
2023-04-15T08:24:46.216Z,75.40
2023-04-15T08:27:13.554Z,72.20
2023-04-15T08:29:46.349Z,66.70
2023-04-15T08:32:17.015Z,63.60
2023-04-15T08:34:46.529Z,60.80
2023-04-15T08:37:16.997Z,59.10
2023-04-15T08:39:45.886Z,55.40
2023-04-15T08:42:18.898Z,53.60
2023-04-15T08:44:48.288Z,54.30
2023-04-15T08:47:18.879Z,54.40
2023-04-15T08:49:53.741Z,53.20
2023-04-15T08:52:22.002Z,53.50
2023-04-15T08:54:49.386Z,53.60
2023-04-15T08:57:19.711Z,55.90
2023-04-15T08:59:49.648Z,55.30
2023-04-15T09:02:17.737Z,57.40
2023-04-15T09:04:45.418Z,58.30
2023-04-15T09:07:16.911Z,59.80
2023-04-15T09:09:44.571Z,60.10
2023-04-15T09:12:14.919Z,58.80
2023-04-15T09:14:45.945Z,59.60
2023-04-15T09:17:13.694Z,60.50
2023-04-15T09:19:46.631Z,60.50
2023-04-15T09:22:22.230Z,59.80
2023-04-15T09:24:49.485Z,59.00
2023-04-15T09:27:18.812Z,58.60
2023-04-15T09:29:51.635Z,58.40
2023-04-15T09:32:20.061Z,59.50
2023-04-15T09:34:48.050Z,59.50
2023-04-15T09:37:31.663Z,59.70
2023-04-15T09:40:05.160Z,59.10
2023-04-15T09:42:33.017Z,59.50
2023-04-15T09:45:12.680Z,60.20
2023-04-15T09:47:40.412Z,61.80
2023-04-15T09:50:09.908Z,62.40
2023-04-15T09:52:44.674Z,62.70
2023-04-15T09:55:16.142Z,63.50
2023-04-15T09:57:50.028Z,64.30
2023-04-15T10:00:22.096Z,64.60
2023-04-15T10:02:51.925Z,64.30
2023-04-15T10:05:19.985Z,65.10
2023-04-15T10:07:48.901Z,64.80
2023-04-15T10:10:18.410Z,64.50
2023-04-15T10:12:49.475Z,64.70
2023-04-15T10:15:20.537Z,64.60
2023-04-15T10:17:51.178Z,64.60
2023-04-15T10:20:21.857Z,63.60
2023-04-15T10:22:52.652Z,63.70
2023-04-15T10:25:22.050Z,63.70
2023-04-15T10:27:52.634Z,63.00
2023-04-15T10:30:20.956Z,64.60
2023-04-15T10:32:51.782Z,64.90
2023-04-15T10:35:22.234Z,65.10
2023-04-15T10:37:49.777Z,64.60
2023-04-15T10:40:31.414Z,64.80
2023-04-15T10:43:02.146Z,61.90
2023-04-15T10:45:37.294Z,62.70
2023-04-15T10:48:08.109Z,62.80
2023-04-15T10:50:41.904Z,62.40
2023-04-15T10:53:30.878Z,63.70
2023-04-15T10:56:00.356Z,64.20
2023-04-15T10:58:42.195Z,64.50
2023-04-15T11:01:09.853Z,65.10
2023-04-15T11:03:39.560Z,63.90
2023-04-15T11:06:11.805Z,62.60
2023-04-15T11:09:02.327Z,62.40
2023-04-15T11:12:10.145Z,62.40
2023-04-15T11:14:43.443Z,63.00
2023-04-15T11:17:12.472Z,63.10
2023-04-15T11:19:40.982Z,63.80
2023-04-15T11:22:13.021Z,63.60
2023-04-15T11:24:51.269Z,63.60
2023-04-15T11:27:25.122Z,64.40
2023-04-15T11:29:53.111Z,64.80
2023-04-15T11:32:23.837Z,65.40
2023-04-15T11:34:56.775Z,65.90
2023-04-15T11:37:30.217Z,66.20
2023-04-15T11:39:57.251Z,66.50
2023-04-15T11:42:46.528Z,67.10
2023-04-15T11:45:17.380Z,67.10
2023-04-15T11:47:47.738Z,67.60
2023-04-15T11:50:18.413Z,67.70
2023-04-15T11:52:56.269Z,69.00
2023-04-15T11:55:24.788Z,68.60
2023-04-15T11:58:08.540Z,69.00
2023-04-15T12:00:40.591Z,69.50
2023-04-15T12:03:20.100Z,70.80
2023-04-15T12:06:18.934Z,71.70
2023-04-15T12:09:09.105Z,72.30
2023-04-15T12:11:39.635Z,73.00
2023-04-15T12:14:13.149Z,73.00
2023-04-15T12:19:29.994Z,73.30
2023-04-15T12:22:01.157Z,73.20
2023-04-15T12:24:31.799Z,74.10
2023-04-15T12:27:13.632Z,75.30
2023-04-15T12:29:45.278Z,75.40
2023-04-15T12:32:14.760Z,75.60
2023-04-15T12:34:44.873Z,76.00
2023-04-15T12:37:14.727Z,76.70
2023-04-15T12:39:44.910Z,77.60
2023-04-15T12:42:19.137Z,78.00
2023-04-15T12:44:51.346Z,77.90
2023-04-15T12:47:19.099Z,78.00
2023-04-15T12:49:46.391Z,78.40
2023-04-15T12:52:17.220Z,79.00
2023-04-15T12:54:47.022Z,79.80
2023-04-15T12:57:22.310Z,80.90
2023-04-15T12:59:50.668Z,81.50
2023-04-15T13:02:25.986Z,81.70
2023-04-15T13:04:56.754Z,82.80
2023-04-15T13:07:24.412Z,84.00
2023-04-15T13:09:51.853Z,84.70
2023-04-15T13:12:19.779Z,86.00
2023-04-15T13:14:53.853Z,87.20
2023-04-15T13:17:22.500Z,88.70
2023-04-15T13:19:49.706Z,90.30
2023-04-15T13:22:17.281Z,91.20
2023-04-15T13:24:45.267Z,91.30
2023-04-15T13:27:18.904Z,91.60
2023-04-15T13:29:45.928Z,92.10
2023-04-15T13:32:15.068Z,92.50
2023-04-15T13:34:42.807Z,93.00
2023-04-15T13:37:13.469Z,92.80
2023-04-15T13:39:40.453Z,93.70
2023-04-15T13:42:07.513Z,94.10
2023-04-15T13:44:35.463Z,94.70
2023-04-15T13:47:12.775Z,95.30
2023-04-15T13:49:44.697Z,96.20
2023-04-15T13:52:12.009Z,96.80
2023-04-15T13:54:39.594Z,97.20
2023-04-15T13:57:07.065Z,97.60
2023-04-15T13:59:34.894Z,98.00
2023-04-15T14:02:05.745Z,97.40
2023-04-15T14:04:33.475Z,97.70
2023-04-15T14:07:02.794Z,97.80
2023-04-15T14:09:35.787Z,97.70
2023-04-15T14:12:05.506Z,97.50
2023-04-15T14:14:32.919Z,98.20
2023-04-15T14:17:00.587Z,98.10
2023-04-15T14:19:27.762Z,98.40
2023-04-15T14:22:03.942Z,98.80
2023-04-15T14:24:34.981Z,99.20
2023-04-15T14:27:04.583Z,99.50
2023-04-15T14:29:32.168Z,99.90
2023-04-15T14:32:07.440Z,99.90
2023-04-15T14:34:48.617Z,99.90
2023-04-15T14:37:21.959Z,99.90
2023-04-15T14:39:49.063Z,99.90
2023-04-15T14:42:16.474Z,99.90
2023-04-15T14:44:45.295Z,99.90
2023-04-15T14:47:12.669Z,99.90
2023-04-15T14:49:50.029Z,99.90
2023-04-15T14:52:18.813Z,99.90
2023-04-15T14:54:46.304Z,99.90
2023-04-15T14:57:17.133Z,99.90
2023-04-15T14:59:47.716Z,99.90
2023-04-15T15:02:26.291Z,99.90
2023-04-15T15:05:04.109Z,99.90
2023-04-15T15:07:33.446Z,99.90
2023-04-15T15:10:01.140Z,99.90
2023-04-15T15:12:38.996Z,99.90
2023-04-15T15:15:19.329Z,99.90
2023-04-15T15:17:55.797Z,99.90
2023-04-15T15:20:27.498Z,99.90
2023-04-15T15:22:58.821Z,99.90
2023-04-15T15:25:29.017Z,99.90
2023-04-15T15:27:58.646Z,99.90
2023-04-15T15:30:29.246Z,99.90
2023-04-15T15:32:56.348Z,99.90
2023-04-15T15:35:29.752Z,99.90
2023-04-15T15:38:01.699Z,99.90
2023-04-15T15:40:32.896Z,99.90
2023-04-15T15:43:00.156Z,99.90
2023-04-15T15:45:29.818Z,99.90
2023-04-15T15:48:04.097Z,99.90
2023-04-15T15:50:34.149Z,99.90
2023-04-15T15:53:06.375Z,99.90
2023-04-15T15:55:36.861Z,99.90
2023-04-15T15:58:08.906Z,99.90
2023-04-15T16:00:36.710Z,99.90
2023-04-15T16:03:07.418Z,99.90
2023-04-15T16:05:43.915Z,99.90
2023-04-15T16:08:18.556Z,99.90
2023-04-15T16:10:46.499Z,99.90
2023-04-15T16:13:16.279Z,99.90
2023-04-15T16:15:44.113Z,99.90
2023-04-15T16:18:11.316Z,99.90
2023-04-15T16:20:39.536Z,99.90
2023-04-15T16:23:13.359Z,99.90
2023-04-15T16:25:44.856Z,99.90
2023-04-15T16:28:25.599Z,99.90
2023-04-15T16:30:54.674Z,99.90
2023-04-15T16:33:21.917Z,99.90
2023-04-15T16:35:49.586Z,99.90
2023-04-15T16:38:19.693Z,99.90
2023-04-15T16:40:48.054Z,99.90
2023-04-15T16:43:15.345Z,99.90
2023-04-15T16:45:51.764Z,99.90
2023-04-15T16:48:20.893Z,99.90
2023-04-15T16:50:48.864Z,99.90
2023-04-15T16:53:16.557Z,99.90
2023-04-15T16:55:44.716Z,99.90
2023-04-15T16:58:22.198Z,99.90
2023-04-15T17:00:53.174Z,99.90
2023-04-15T17:03:23.971Z,99.90
2023-04-15T17:08:43.533Z,99.90
2023-04-15T17:11:16.064Z,99.90
2023-04-15T17:13:44.895Z,99.90
2023-04-15T17:16:12.590Z,99.90
2023-04-15T17:18:40.436Z,99.90
2023-04-15T17:21:11.124Z,99.90
2023-04-15T17:23:38.152Z,99.90
2023-04-15T17:26:05.323Z,99.90
2023-04-15T17:28:36.698Z,99.90
2023-04-15T17:31:05.890Z,99.90
2023-04-15T17:34:00.648Z,99.90
2023-04-15T17:39:15.064Z,99.90
2023-04-15T17:41:47.567Z,99.90
2023-04-15T17:44:18.137Z,99.90
2023-04-15T17:46:47.505Z,99.90
2023-04-15T17:49:15.516Z,99.90
2023-04-15T17:51:43.333Z,99.90
2023-04-15T17:54:10.735Z,99.90
2023-04-15T17:56:38.606Z,99.90
2023-04-15T17:59:09.510Z,99.90
2023-04-15T18:01:42.807Z,99.90
2023-04-15T18:04:18.234Z,99.90
2023-04-15T18:06:51.532Z,99.90
2023-04-15T18:09:25.606Z,99.90
2023-04-15T18:11:55.823Z,99.90
2023-04-15T18:14:33.650Z,99.90
2023-04-15T18:17:03.235Z,99.90
2023-04-15T18:19:32.322Z,99.90
2023-04-15T18:22:03.789Z,99.90
2023-04-15T18:24:37.057Z,99.90
2023-04-15T18:27:07.429Z,99.90
2023-04-15T18:29:38.619Z,99.90
2023-04-15T18:32:09.415Z,99.90
2023-04-15T18:34:38.775Z,99.90
2023-04-15T18:37:06.833Z,99.90
2023-04-15T18:39:37.180Z,99.90
2023-04-15T18:42:14.001Z,99.90
2023-04-15T18:44:47.666Z,99.90
2023-04-15T18:47:15.821Z,99.90
2023-04-15T18:49:45.170Z,99.90
2023-04-15T18:52:13.468Z,99.90
2023-04-15T18:54:43.791Z,99.90
2023-04-15T18:57:14.686Z,99.90
2023-04-15T18:59:54.887Z,99.90
2023-04-15T19:02:28.567Z,99.90
2023-04-15T19:04:57.691Z,99.90
2023-04-15T19:07:25.417Z,99.90
2023-04-15T19:09:54.045Z,99.90
2023-04-15T19:12:23.571Z,99.90
2023-04-15T19:14:51.440Z,99.90
2023-04-15T19:17:18.860Z,99.90
2023-04-15T19:19:47.366Z,99.90
2023-04-15T19:22:16.753Z,99.90
2023-04-15T19:24:44.029Z,99.90
2023-04-15T19:27:17.485Z,99.90
2023-04-15T19:29:50.723Z,99.90
2023-04-15T19:32:19.026Z,99.90
2023-04-15T19:34:49.674Z,99.90
2023-04-15T19:37:18.914Z,99.90
2023-04-15T19:39:46.152Z,99.90
2023-04-15T19:42:14.180Z,99.90
2023-04-15T19:44:44.606Z,99.90
2023-04-15T19:47:12.837Z,99.90
2023-04-15T19:49:42.779Z,99.90
2023-04-15T19:52:10.062Z,99.90
2023-04-15T19:54:39.120Z,99.90
2023-04-15T19:57:15.515Z,99.90
2023-04-15T19:59:43.232Z,99.90
2023-04-15T20:02:10.940Z,99.90
2023-04-15T20:04:38.382Z,99.90
2023-04-15T20:07:06.306Z,99.90
2023-04-15T20:09:34.535Z,99.90
2023-04-15T20:12:47.802Z,99.90
2023-04-15T20:14:51.088Z,99.90
2023-04-15T20:17:18.619Z,99.90
2023-04-15T20:19:46.416Z,99.90
2023-04-15T20:22:13.436Z,99.90
2023-04-15T20:24:44.177Z,99.90
2023-04-15T20:27:13.098Z,99.90
2023-04-15T20:29:40.641Z,99.90
2023-04-15T20:32:12.912Z,99.90
2023-04-15T20:34:40.515Z,99.90
2023-04-15T20:37:08.380Z,99.90
2023-04-15T20:39:36.446Z,99.90
2023-04-15T20:42:03.901Z,99.90
2023-04-15T20:44:32.930Z,99.90
2023-04-15T20:47:06.755Z,99.90
2023-04-15T20:49:39.298Z,99.90
2023-04-15T20:52:09.424Z,99.90
2023-04-15T20:54:37.302Z,99.90
2023-04-15T20:57:08.230Z,99.90
2023-04-15T20:59:37.500Z,99.90
2023-04-15T21:02:05.239Z,99.90
2023-04-15T21:04:35.405Z,99.90
2023-04-15T21:07:02.760Z,99.90
2023-04-15T21:09:33.249Z,99.90
2023-04-15T21:12:02.300Z,99.90
2023-04-15T21:14:30.256Z,99.90
2023-04-15T21:16:59.392Z,99.90
2023-04-15T21:19:27.122Z,99.90
2023-04-15T21:21:54.504Z,99.90
2023-04-15T21:24:25.557Z,99.90
2023-04-15T21:26:52.654Z,99.90
2023-04-15T21:29:30.529Z,99.90
2023-04-15T21:31:58.988Z,99.90
2023-04-15T21:34:26.381Z,99.90
2023-04-15T21:36:53.996Z,99.90
2023-04-15T21:39:21.491Z,99.90
2023-04-15T21:41:48.705Z,99.90
2023-04-15T21:44:16.861Z,99.90
2023-04-15T21:46:46.148Z,99.90
2023-04-15T21:49:14.755Z,99.90
2023-04-15T21:51:42.358Z,99.90
2023-04-15T21:54:10.004Z,99.90
2023-04-15T21:56:43.656Z,99.90
2023-04-15T21:59:11.261Z,99.90
2023-04-15T22:01:42.010Z,99.90
2023-04-15T22:04:19.592Z,99.90
2023-04-15T22:06:47.687Z,99.90
2023-04-15T22:09:15.604Z,99.90
2023-04-15T22:11:48.899Z,99.90
2023-04-15T22:14:16.458Z,99.90
2023-04-15T22:16:44.768Z,99.90
2023-04-15T22:19:12.557Z,99.90
2023-04-15T22:21:40.981Z,99.90
2023-04-15T22:24:32.963Z,99.90
2023-04-15T22:27:05.096Z,99.90
2023-04-15T22:29:32.827Z,99.90
2023-04-15T22:32:00.094Z,99.90
2023-04-15T22:34:27.997Z,99.90
2023-04-15T22:36:56.936Z,99.90
2023-04-15T22:39:24.204Z,99.90
2023-04-15T22:41:58.487Z,99.90
2023-04-15T22:44:26.173Z,99.90
2023-04-15T22:46:53.222Z,99.90
2023-04-15T22:49:20.804Z,99.90
2023-04-15T22:51:50.173Z,99.90
2023-04-15T22:54:19.283Z,99.90
2023-04-15T22:56:46.357Z,99.90
2023-04-15T22:59:17.289Z,99.90
2023-04-15T23:01:47.965Z,99.90
2023-04-15T23:04:25.412Z,99.90
2023-04-15T23:06:57.157Z,99.90
2023-04-15T23:09:26.773Z,99.90
2023-04-15T23:11:54.722Z,99.90
2023-04-15T23:14:21.852Z,99.90
2023-04-15T23:16:49.500Z,99.90
2023-04-15T23:19:20.192Z,99.90
2023-04-15T23:21:48.214Z,99.90
2023-04-15T23:24:16.072Z,99.90
2023-04-15T23:26:44.611Z,99.90
2023-04-15T23:29:15.388Z,99.90
2023-04-15T23:31:46.315Z,99.90
2023-04-15T23:34:14.531Z,99.90
2023-04-15T23:36:41.601Z,99.90
2023-04-15T23:39:09.952Z,99.90
2023-04-15T23:41:37.242Z,99.90
2023-04-15T23:44:06.008Z,99.90
2023-04-15T23:46:33.680Z,99.90
2023-04-15T23:49:03.875Z,99.90
2023-04-15T23:51:37.585Z,99.90
2023-04-15T23:54:04.771Z,99.90
2023-04-15T23:56:35.577Z,99.90
2023-04-15T23:59:10.329Z,99.90
